createdAt,value
2019-05-15T00:01:00.517Z,7.20
2019-05-15T00:03:30.256Z,7.20
2019-05-15T00:06:00.152Z,7.20
2019-05-15T00:08:29.738Z,7.10
2019-05-15T00:10:59.465Z,7.10
2019-05-15T00:13:29.214Z,7.10
2019-05-15T00:15:59.071Z,7.00
2019-05-15T00:18:28.242Z,6.90
2019-05-15T00:20:59.519Z,6.80
2019-05-15T00:23:29.291Z,6.70
2019-05-15T00:25:58.968Z,6.70
2019-05-15T00:28:29.536Z,6.60
2019-05-15T00:30:59.299Z,6.60
2019-05-15T00:33:29.021Z,6.60
2019-05-15T00:35:59.031Z,6.60
2019-05-15T00:38:28.725Z,6.50
2019-05-15T00:40:58.603Z,6.50
2019-05-15T00:43:29.089Z,6.50
2019-05-15T00:45:58.800Z,6.40
2019-05-15T00:48:29.247Z,6.40
2019-05-15T00:50:59.118Z,6.40
2019-05-15T00:53:28.752Z,6.30
2019-05-15T00:55:58.437Z,6.30
2019-05-15T00:58:28.424Z,6.20
2019-05-15T01:00:59.175Z,6.20
2019-05-15T01:03:29.004Z,6.20
2019-05-15T01:05:58.711Z,6.20
2019-05-15T01:08:28.589Z,6.20
2019-05-15T01:10:58.266Z,6.20
2019-05-15T01:13:29.089Z,6.20
2019-05-15T01:15:58.746Z,6.20
2019-05-15T01:18:29.239Z,6.30
2019-05-15T01:20:59.128Z,6.30
2019-05-15T01:23:28.881Z,6.30
2019-05-15T01:25:58.945Z,6.30
2019-05-15T01:28:28.965Z,6.30
2019-05-15T01:30:59.314Z,6.40
2019-05-15T01:33:30.019Z,6.30
2019-05-15T01:35:59.668Z,6.40
2019-05-15T01:38:29.362Z,6.40
2019-05-15T01:40:59.223Z,6.40
2019-05-15T01:43:29.087Z,6.40
2019-05-15T01:45:58.996Z,6.40
2019-05-15T01:48:28.633Z,6.40
2019-05-15T01:50:58.698Z,6.40
2019-05-15T01:53:29.175Z,6.50
2019-05-15T01:55:59.043Z,6.60
2019-05-15T01:58:28.903Z,6.70
2019-05-15T02:00:59.038Z,6.70
2019-05-15T02:03:29.798Z,6.80
2019-05-15T02:05:59.519Z,6.80
2019-05-15T02:08:29.216Z,6.90
2019-05-15T02:10:59.064Z,6.90
2019-05-15T02:13:28.811Z,7.00
2019-05-15T02:15:58.909Z,7.10
2019-05-15T02:18:28.731Z,7.10
2019-05-15T02:20:58.859Z,7.10
2019-05-15T02:23:28.527Z,7.20
2019-05-15T02:25:58.865Z,7.30
2019-05-15T02:28:28.996Z,7.30
2019-05-15T02:30:58.781Z,7.30
2019-05-15T02:33:30.082Z,7.30
2019-05-15T02:35:59.951Z,7.20
2019-05-15T02:38:29.960Z,7.20
2019-05-15T02:40:59.838Z,7.20
2019-05-15T02:43:29.982Z,7.20
2019-05-15T02:46:00.938Z,7.20
2019-05-15T02:48:31.696Z,7.20
2019-05-15T02:51:01.431Z,7.30
2019-05-15T02:53:31.179Z,7.30
2019-05-15T02:56:00.719Z,7.40
2019-05-15T02:58:30.413Z,7.40
2019-05-15T03:01:00.069Z,7.40
2019-05-15T03:03:29.716Z,7.50
2019-05-15T03:06:00.515Z,7.50
2019-05-15T03:08:30.202Z,7.60
2019-05-15T03:10:59.797Z,7.60
2019-05-15T03:13:30.057Z,7.70
2019-05-15T03:16:00.121Z,7.70
2019-05-15T03:18:30.034Z,7.80
2019-05-15T03:21:00.393Z,7.80
2019-05-15T03:23:30.374Z,7.90
2019-05-15T03:26:04.073Z,7.90
2019-05-15T03:28:31.317Z,8.00
2019-05-15T03:31:22.566Z,8.00
2019-05-15T03:33:36.506Z,8.10
2019-05-15T03:36:03.944Z,8.10
2019-05-15T03:38:32.917Z,8.20
2019-05-15T03:41:02.547Z,8.20
2019-05-15T03:43:32.228Z,8.20
2019-05-15T03:46:02.107Z,8.30
2019-05-15T03:48:32.835Z,8.30
2019-05-15T03:51:02.525Z,8.30
2019-05-15T03:53:32.092Z,8.40
2019-05-15T03:56:01.743Z,8.50
2019-05-15T03:58:32.611Z,8.50
2019-05-15T04:01:02.302Z,8.60
2019-05-15T04:03:32.073Z,8.60
2019-05-15T04:06:01.699Z,8.70
2019-05-15T04:08:31.428Z,8.70
2019-05-15T04:11:01.043Z,8.80
2019-05-15T04:13:30.722Z,8.80
2019-05-15T04:16:00.392Z,8.80
2019-05-15T04:18:30.045Z,8.80
2019-05-15T04:21:00.371Z,8.90
2019-05-15T04:23:30.383Z,8.90
2019-05-15T04:25:59.310Z,8.90
2019-05-15T04:28:32.204Z,8.90
2019-05-15T04:31:02.209Z,9.00
2019-05-15T04:33:31.881Z,9.00
2019-05-15T04:36:01.679Z,9.10
2019-05-15T04:38:31.459Z,9.10
2019-05-15T04:41:01.103Z,9.10
2019-05-15T04:43:39.709Z,9.10
2019-05-15T04:46:03.036Z,9.20
2019-05-15T04:48:33.072Z,9.20
2019-05-15T04:51:03.892Z,9.30
2019-05-15T04:53:35.094Z,9.30
2019-05-15T04:56:09.481Z,9.40
2019-05-15T04:58:39.766Z,9.40
2019-05-15T05:01:09.796Z,9.50
2019-05-15T05:03:43.199Z,9.50
2019-05-15T05:06:14.277Z,9.60
2019-05-15T05:08:45.227Z,9.70
2019-05-15T05:11:34.141Z,9.80
2019-05-15T05:14:03.836Z,9.80
2019-05-15T05:16:33.585Z,9.80
2019-05-15T05:19:03.462Z,9.80
2019-05-15T05:21:33.135Z,9.90
2019-05-15T05:24:03.055Z,9.90
2019-05-15T05:26:32.054Z,10.00
2019-05-15T05:29:01.741Z,10.10
2019-05-15T05:31:31.548Z,10.10
2019-05-15T05:34:01.143Z,10.20
2019-05-15T05:36:33.595Z,10.30
2019-05-15T05:39:04.647Z,10.40
2019-05-15T05:41:34.269Z,10.40
2019-05-15T05:44:04.087Z,10.50
2019-05-15T05:46:33.780Z,10.50
2019-05-15T05:49:03.571Z,10.60
2019-05-15T05:51:35.428Z,10.70
2019-05-15T05:54:05.147Z,10.70
2019-05-15T05:56:34.786Z,10.70
2019-05-15T05:59:04.404Z,10.90
2019-05-15T06:01:36.998Z,11.00
2019-05-15T06:04:07.919Z,11.00
2019-05-15T06:06:38.416Z,11.10
2019-05-15T06:09:09.291Z,11.10
2019-05-15T06:11:40.816Z,11.20
2019-05-15T06:14:10.509Z,11.20
2019-05-15T06:16:48.299Z,11.30
2019-05-15T06:19:20.789Z,11.30
2019-05-15T06:21:57.194Z,11.40
2019-05-15T06:24:21.907Z,11.40
2019-05-15T06:26:51.591Z,11.50
2019-05-15T06:29:23.970Z,11.50
2019-05-15T06:31:58.756Z,11.50
2019-05-15T06:34:30.408Z,11.60
2019-05-15T06:37:00.171Z,11.60
2019-05-15T06:39:31.429Z,11.60
2019-05-15T06:42:08.780Z,11.60
2019-05-15T06:44:39.820Z,11.60
2019-05-15T06:47:14.067Z,11.70
2019-05-15T06:49:43.734Z,11.70
2019-05-15T06:52:13.382Z,11.90
2019-05-15T06:54:42.924Z,11.90
2019-05-15T06:57:12.601Z,12.00
2019-05-15T06:59:42.201Z,12.10
2019-05-15T07:02:11.967Z,12.10
2019-05-15T07:04:41.765Z,12.20
2019-05-15T07:07:11.593Z,12.30
2019-05-15T07:09:42.302Z,12.40
2019-05-15T07:12:13.536Z,12.40
2019-05-15T07:14:43.317Z,12.50
2019-05-15T07:17:13.091Z,12.50
2019-05-15T07:19:42.833Z,12.60
2019-05-15T07:22:12.846Z,12.60
2019-05-15T07:24:41.707Z,12.70
2019-05-15T07:27:11.295Z,12.80
2019-05-15T07:29:41.083Z,12.80
2019-05-15T07:32:11.840Z,12.70
2019-05-15T07:34:41.606Z,12.70
2019-05-15T07:37:11.337Z,12.70
2019-05-15T07:39:48.820Z,12.60
2019-05-15T07:42:12.535Z,12.60
2019-05-15T07:44:43.285Z,12.50
2019-05-15T07:47:14.782Z,12.60
2019-05-15T07:49:43.616Z,12.60
2019-05-15T07:52:13.416Z,12.60
2019-05-15T07:55:21.281Z,12.60
2019-05-15T07:58:20.735Z,12.60
2019-05-15T08:00:50.390Z,12.60
2019-05-15T08:04:20.527Z,12.70
2019-05-15T08:06:29.511Z,12.70
2019-05-15T08:09:12.917Z,12.80
2019-05-15T08:48:28.006Z,13.20
2019-05-15T08:54:05.730Z,13.10
2019-05-15T09:14:51.719Z,12.80
2019-05-15T09:17:21.435Z,12.80
2019-05-15T09:19:51.110Z,12.80
2019-05-15T09:22:29.503Z,12.70
2019-05-15T09:25:00.190Z,12.70
2019-05-15T09:27:29.676Z,12.70
2019-05-15T09:30:00.617Z,12.70
2019-05-15T09:32:33.678Z,12.70
2019-05-15T09:35:08.436Z,12.70
2019-05-15T09:37:40.882Z,12.70
2019-05-15T09:40:11.482Z,12.70
2019-05-15T09:42:43.066Z,12.70
2019-05-15T09:45:17.879Z,12.70
2019-05-15T09:47:52.969Z,12.70
2019-05-15T09:50:24.980Z,12.80
2019-05-15T10:05:38.800Z,12.80
2019-05-15T10:08:10.261Z,12.70
2019-05-15T10:10:45.476Z,12.70
2019-05-15T10:16:42.893Z,12.70
2019-05-15T10:19:14.365Z,12.60
2019-05-15T10:21:44.869Z,12.60
2019-05-15T10:24:21.808Z,12.60
2019-05-15T10:26:51.581Z,12.70
2019-05-15T10:29:21.344Z,12.70
2019-05-15T10:31:51.182Z,12.70
2019-05-15T10:34:20.163Z,12.80
2019-05-15T10:36:49.794Z,12.90
2019-05-15T10:39:19.522Z,13.00
2019-05-15T10:41:49.296Z,13.10
2019-05-15T10:44:21.877Z,13.20
2019-05-15T10:46:51.491Z,13.30
2019-05-15T10:49:21.250Z,13.30
2019-05-15T10:51:50.986Z,13.30
2019-05-15T10:54:20.772Z,13.40
2019-05-15T10:56:51.838Z,13.60
2019-05-15T10:59:21.666Z,13.80
2019-05-15T11:01:50.596Z,14.00
2019-05-15T11:04:20.300Z,14.20
2019-05-15T11:06:49.924Z,14.40
2019-05-15T11:09:22.135Z,14.60
2019-05-15T11:11:51.812Z,14.70
2019-05-15T11:14:24.196Z,14.90
2019-05-15T11:17:03.344Z,15.10
2019-05-15T11:19:58.616Z,15.30
2019-05-15T11:25:23.378Z,15.50
2019-05-15T11:28:32.257Z,15.50
2019-05-15T11:31:01.553Z,15.50
2019-05-15T11:33:32.813Z,15.60
2019-05-15T11:36:06.067Z,15.60
2019-05-15T11:38:33.816Z,15.70
2019-05-15T11:41:04.738Z,15.70
2019-05-15T11:43:34.619Z,15.50
2019-05-15T11:46:04.319Z,15.30
2019-05-15T11:48:33.917Z,15.00
2019-05-15T11:57:46.803Z,15.20
2019-05-15T12:03:53.904Z,15.60
2019-05-15T12:06:35.279Z,15.70
2019-05-15T12:09:09.125Z,15.40
2019-05-15T12:11:41.658Z,15.30
2019-05-15T12:14:12.881Z,15.40
2019-05-15T12:16:42.296Z,15.60
2019-05-15T12:19:17.077Z,15.70
2019-05-15T12:21:43.058Z,15.80
2019-05-15T12:24:12.594Z,15.80
2019-05-15T12:26:42.301Z,15.80
2019-05-15T12:31:58.945Z,16.40
2019-05-15T12:34:59.991Z,16.80
2019-05-15T12:37:45.127Z,17.10
2019-05-15T13:01:17.139Z,17.60
2019-05-15T13:03:42.399Z,17.70
2019-05-15T13:06:46.115Z,17.70
2019-05-15T13:09:11.049Z,17.60
2019-05-15T13:12:20.197Z,17.60
2019-05-15T13:14:59.071Z,17.60
2019-05-15T13:20:04.637Z,17.20
2019-05-15T14:09:09.377Z,20.90
2019-05-15T14:34:31.718Z,27.70
2019-05-15T14:37:16.138Z,30.80
2019-05-15T14:39:58.952Z,32.50
2019-05-15T14:42:35.825Z,33.80
2019-05-15T14:45:11.313Z,34.80
2019-05-15T14:47:45.905Z,35.80
2019-05-15T14:50:15.744Z,36.70
2019-05-15T14:52:48.628Z,37.30
2019-05-15T14:55:21.532Z,37.40
2019-05-15T14:57:59.162Z,38.40
2019-05-15T15:00:34.461Z,39.30
2019-05-15T15:03:00.771Z,40.20
2019-05-15T15:05:38.312Z,40.80
2019-05-15T15:11:13.509Z,39.60
2019-05-15T15:13:43.183Z,39.50
2019-05-15T15:16:19.346Z,39.20
2019-05-15T15:18:50.906Z,38.20
2019-05-15T15:21:22.818Z,36.40
2019-05-15T15:23:55.556Z,35.00
2019-05-15T15:26:27.467Z,34.50
2019-05-15T15:29:35.879Z,34.10
2019-05-15T15:35:08.274Z,31.10
2019-05-15T15:37:58.589Z,30.80
2019-05-15T15:40:55.095Z,31.60
2019-05-15T15:46:55.858Z,34.80
2019-05-15T16:05:19.220Z,35.20
2019-05-15T16:17:39.270Z,34.10
2019-05-15T16:20:15.647Z,34.50
2019-05-15T16:23:00.066Z,34.60
2019-05-15T16:28:14.257Z,33.20
2019-05-15T16:30:51.577Z,32.80
2019-05-15T16:33:29.095Z,32.50
2019-05-15T16:36:05.422Z,32.00
2019-05-15T16:38:39.149Z,31.20
2019-05-15T16:41:08.988Z,30.90
2019-05-15T16:43:38.941Z,30.50
2019-05-15T16:46:09.177Z,30.20
2019-05-15T16:48:39.217Z,30.20
2019-05-15T16:51:09.424Z,29.50
2019-05-15T16:53:39.495Z,28.50
2019-05-15T16:56:09.257Z,27.50
2019-05-15T16:58:39.073Z,26.40
2019-05-15T17:04:21.394Z,24.60
2019-05-15T17:06:58.534Z,23.90
2019-05-15T17:09:31.223Z,23.40
2019-05-15T17:12:01.143Z,23.00
2019-05-15T17:14:31.001Z,22.70
2019-05-15T17:17:00.656Z,22.40
2019-05-15T17:19:30.388Z,22.10
2019-05-15T17:22:00.154Z,21.90
2019-05-15T17:24:29.973Z,22.00
2019-05-15T17:26:59.656Z,22.40
2019-05-15T17:29:29.622Z,22.80
2019-05-15T17:32:01.394Z,23.10
2019-05-15T17:34:31.259Z,23.40
2019-05-15T17:37:01.040Z,23.50
2019-05-15T17:39:36.769Z,23.40
2019-05-15T17:42:05.040Z,23.20
2019-05-15T17:44:34.801Z,22.80
2019-05-15T17:47:04.655Z,22.10
2019-05-15T17:49:38.583Z,21.70
2019-05-15T17:52:09.396Z,21.30
2019-05-15T17:54:39.519Z,20.80
2019-05-15T17:57:09.637Z,20.30
2019-05-15T17:59:42.533Z,19.90
2019-05-15T18:02:13.239Z,19.60
2019-05-15T18:04:48.008Z,19.20
2019-05-15T18:08:10.499Z,18.70
2019-05-15T18:11:41.073Z,18.30
2019-05-15T18:14:32.395Z,17.80
2019-05-15T18:17:00.052Z,17.40
2019-05-15T18:19:55.316Z,17.10
2019-05-15T18:22:48.963Z,16.80
2019-05-15T18:28:58.144Z,16.20
2019-05-15T18:31:40.910Z,16.00
2019-05-15T18:34:18.868Z,15.80
2019-05-15T18:37:36.031Z,15.50
2019-05-15T18:42:58.954Z,15.00
2019-05-15T18:46:33.110Z,14.80
2019-05-15T18:58:04.898Z,14.20
2019-05-15T19:00:43.757Z,14.10
2019-05-15T19:03:27.768Z,13.90
2019-05-15T19:06:18.437Z,13.80
2019-05-15T19:08:59.765Z,13.70
2019-05-15T19:11:42.440Z,13.60
2019-05-15T19:14:22.011Z,13.50
2019-05-15T19:17:00.593Z,13.40
2019-05-15T19:20:01.688Z,13.30
2019-05-15T19:22:59.038Z,13.20
2019-05-15T19:26:02.763Z,13.10
2019-05-15T19:28:54.064Z,13.00
2019-05-15T19:33:45.476Z,12.80
2019-05-15T19:35:15.840Z,12.70
2019-05-15T19:40:47.851Z,12.60
2019-05-15T21:11:58.651Z,10.60
2019-05-15T21:14:29.738Z,10.50
2019-05-15T21:20:18.221Z,10.40
2019-05-15T21:22:53.484Z,10.30
2019-05-15T21:25:28.530Z,10.30
2019-05-15T21:27:58.843Z,10.30
2019-05-15T21:30:29.570Z,10.30
2019-05-15T21:32:59.433Z,10.30
2019-05-15T21:35:30.543Z,10.30
2019-05-15T21:38:00.462Z,10.30
2019-05-15T21:40:31.585Z,10.30
2019-05-15T21:43:01.240Z,10.30
2019-05-15T21:45:30.832Z,10.20
2019-05-15T21:48:02.319Z,10.20
2019-05-15T21:50:33.649Z,10.30
2019-05-15T21:53:03.436Z,10.30
2019-05-15T21:55:33.938Z,10.30
2019-05-15T21:58:08.175Z,10.40
2019-05-15T22:00:40.645Z,10.50
2019-05-15T22:03:10.685Z,10.50
2019-05-15T22:05:40.544Z,10.50
2019-05-15T22:08:11.612Z,10.60
2019-05-15T22:10:41.643Z,10.60
2019-05-15T22:13:11.363Z,10.60
2019-05-15T22:15:41.541Z,10.70
2019-05-15T22:18:12.845Z,10.70
2019-05-15T22:20:42.721Z,10.70
2019-05-15T22:23:11.645Z,10.80
2019-05-15T22:25:41.688Z,10.80
2019-05-15T22:28:11.547Z,10.80
2019-05-15T22:30:42.088Z,10.80
2019-05-15T22:33:11.889Z,10.80
2019-05-15T22:35:41.691Z,10.80
2019-05-15T22:38:11.531Z,10.80
2019-05-15T22:40:48.414Z,10.70
2019-05-15T22:43:18.604Z,10.70
2019-05-15T22:45:48.504Z,10.60
2019-05-15T22:48:18.389Z,10.50
2019-05-15T22:50:47.870Z,10.40
2019-05-15T22:53:17.873Z,10.30
2019-05-15T22:55:48.337Z,10.20
2019-05-15T22:58:18.205Z,10.10
2019-05-15T23:00:48.943Z,10.10
2019-05-15T23:03:20.035Z,10.10
2019-05-15T23:05:58.164Z,10.00
2019-05-15T23:08:29.046Z,10.00
2019-05-15T23:10:59.142Z,10.00
2019-05-15T23:13:33.611Z,9.90
2019-05-15T23:16:03.617Z,9.90
2019-05-15T23:18:36.514Z,9.90
2019-05-15T23:23:38.054Z,9.70
2019-05-15T23:26:09.393Z,9.70
2019-05-15T23:28:39.071Z,9.70
2019-05-15T23:31:09.839Z,9.60
2019-05-15T23:33:39.650Z,9.60
2019-05-15T23:36:09.414Z,9.50
2019-05-15T23:38:40.052Z,9.50
2019-05-15T23:41:12.775Z,9.50
2019-05-15T23:43:42.550Z,9.40
2019-05-15T23:46:12.224Z,9.30
2019-05-15T23:48:41.946Z,9.30
2019-05-15T23:51:11.761Z,9.20
2019-05-15T23:53:42.640Z,9.20
2019-05-15T23:56:12.520Z,9.30
2019-05-15T23:58:42.154Z,9.20
